createdAt,value
2022-09-10T00:01:47.729Z,6.60
2022-09-10T00:04:18.717Z,6.95
2022-09-10T00:06:48.065Z,6.78
2022-09-10T00:09:18.391Z,7.47
2022-09-10T00:11:48.800Z,9.95
2022-09-10T00:14:23.170Z,9.07
2022-09-10T00:16:52.774Z,8.73
2022-09-10T00:19:23.245Z,9.10
2022-09-10T00:21:52.550Z,8.82
2022-09-10T00:24:23.605Z,9.88
2022-09-10T00:26:52.856Z,7.35
2022-09-10T00:29:22.165Z,8.55
2022-09-10T00:31:51.265Z,8.30
2022-09-10T00:34:20.452Z,6.82
2022-09-10T00:36:49.704Z,6.53
2022-09-10T00:39:21.452Z,5.43
2022-09-10T00:41:51.351Z,5.20
2022-09-10T00:44:57.171Z,4.53
2022-09-10T00:47:41.160Z,4.90
2022-09-10T00:50:35.897Z,4.60
2022-09-10T00:53:11.614Z,4.80
2022-09-10T00:55:45.239Z,4.82
2022-09-10T00:58:16.571Z,4.65
2022-09-10T01:00:45.961Z,4.70
2022-09-10T01:03:24.858Z,4.50
2022-09-10T01:05:55.561Z,3.30
2022-09-10T01:08:24.981Z,2.70
2022-09-10T01:11:34.745Z,3.75
2022-09-10T01:14:40.198Z,2.35
2022-09-10T01:17:53.474Z,3.08
2022-09-10T01:20:49.970Z,2.97
2022-09-10T01:23:59.205Z,2.70
2022-09-10T01:27:12.407Z,2.60
2022-09-10T01:30:28.233Z,2.30
2022-09-10T01:33:24.958Z,3.33
2022-09-10T01:36:14.074Z,2.47
2022-09-10T01:38:44.025Z,2.55
2022-09-10T01:41:15.012Z,3.13
2022-09-10T01:43:44.523Z,2.13
2022-09-10T01:47:00.425Z,2.35
2022-09-10T01:49:59.639Z,2.78
2022-09-10T01:53:13.211Z,1.83
2022-09-10T01:56:25.934Z,1.67
2022-09-10T01:59:10.289Z,1.85
2022-09-10T02:01:52.842Z,1.38
2022-09-10T02:04:24.382Z,1.30
2022-09-10T02:06:54.358Z,1.88
2022-09-10T02:09:24.468Z,1.25
2022-09-10T02:11:57.964Z,1.00
2022-09-10T02:14:27.935Z,1.08
2022-09-10T02:17:01.413Z,1.80
2022-09-10T02:19:30.773Z,1.67
2022-09-10T02:22:02.086Z,1.63
2022-09-10T02:24:31.294Z,1.30
2022-09-10T02:27:01.794Z,2.28
2022-09-10T02:29:31.082Z,1.42
2022-09-10T02:32:00.933Z,1.02
2022-09-10T02:34:31.733Z,1.65
2022-09-10T02:37:01.180Z,1.58
2022-09-10T02:39:31.006Z,2.08
2022-09-10T02:42:00.768Z,1.73
2022-09-10T02:44:30.309Z,1.88
2022-09-10T02:46:59.806Z,1.15
2022-09-10T02:49:29.382Z,4.38
2022-09-10T02:51:58.678Z,1.85
2022-09-10T02:54:27.951Z,1.73
2022-09-10T02:56:57.928Z,1.33
2022-09-10T02:59:27.458Z,2.47
2022-09-10T03:01:57.410Z,1.15
2022-09-10T03:04:26.701Z,1.65
2022-09-10T03:06:56.465Z,1.00
2022-09-10T03:09:29.941Z,1.60
2022-09-10T03:12:00.731Z,3.30
2022-09-10T03:14:31.421Z,1.90
2022-09-10T03:17:01.308Z,1.60
2022-09-10T03:19:30.497Z,2.67
2022-09-10T03:21:59.749Z,1.45
2022-09-10T03:24:29.620Z,1.75
2022-09-10T03:26:59.292Z,1.77
2022-09-10T03:29:31.124Z,1.77
2022-09-10T03:32:00.389Z,1.50
2022-09-10T03:34:29.561Z,1.30
2022-09-10T03:36:58.776Z,1.10
2022-09-10T03:39:27.948Z,1.30
2022-09-10T03:42:04.283Z,1.77
2022-09-10T03:44:34.722Z,1.25
2022-09-10T03:47:04.335Z,1.27
2022-09-10T03:49:33.820Z,1.80
2022-09-10T03:52:03.824Z,1.35
2022-09-10T03:54:33.061Z,1.67
2022-09-10T03:57:03.635Z,1.50
2022-09-10T03:59:33.062Z,1.52
2022-09-10T04:02:04.087Z,2.40
2022-09-10T04:04:34.043Z,2.00
2022-09-10T04:07:03.357Z,1.40
2022-09-10T04:09:33.600Z,0.85
2022-09-10T04:12:04.808Z,1.42
2022-09-10T04:14:35.498Z,3.67
2022-09-10T04:17:04.871Z,1.80
2022-09-10T04:19:34.181Z,0.95
2022-09-10T04:22:04.225Z,1.08
2022-09-10T04:24:33.480Z,1.60
2022-09-10T04:27:02.758Z,1.40
2022-09-10T04:29:33.429Z,2.00
2022-09-10T04:32:02.763Z,1.83
2022-09-10T04:34:31.962Z,1.90
2022-09-10T04:37:01.415Z,1.40
2022-09-10T04:39:31.036Z,1.10
2022-09-10T04:42:00.378Z,1.15
2022-09-10T04:44:30.602Z,1.13
2022-09-10T04:46:59.854Z,1.15
2022-09-10T04:49:29.038Z,1.15
2022-09-10T04:51:58.517Z,1.00
2022-09-10T04:54:27.695Z,1.25
2022-09-10T04:56:57.078Z,0.95
2022-09-10T04:59:26.309Z,1.08
2022-09-10T05:01:55.939Z,0.60
2022-09-10T05:04:25.935Z,0.90
2022-09-10T05:06:55.287Z,1.13
2022-09-10T05:09:24.498Z,2.05
2022-09-10T05:11:54.139Z,1.20
2022-09-10T05:14:24.352Z,0.82
2022-09-10T05:16:53.814Z,0.90
2022-09-10T05:19:23.535Z,0.77
2022-09-10T05:21:55.618Z,1.00
2022-09-10T05:24:25.009Z,0.65
2022-09-10T05:26:54.316Z,1.30
2022-09-10T05:29:23.721Z,0.70
2022-09-10T05:31:53.051Z,0.75
2022-09-10T05:34:22.405Z,0.57
2022-09-10T05:36:51.679Z,1.05
2022-09-10T05:39:21.356Z,1.33
2022-09-10T05:41:50.695Z,1.13
2022-09-10T05:44:20.159Z,0.90
2022-09-10T05:46:49.557Z,0.65
2022-09-10T05:49:18.740Z,0.80
2022-09-10T05:51:56.787Z,0.70
2022-09-10T05:56:55.238Z,0.80
2022-09-10T05:59:24.443Z,2.13
2022-09-10T06:01:53.843Z,0.70
2022-09-10T06:04:23.411Z,1.00
2022-09-10T06:06:52.620Z,0.80
2022-09-10T06:09:22.017Z,0.80
2022-09-10T06:11:52.043Z,2.55
2022-09-10T06:14:21.927Z,1.13
2022-09-10T06:16:51.026Z,1.23
2022-09-10T06:19:20.946Z,1.35
2022-09-10T06:21:55.486Z,1.83
2022-09-10T06:24:25.607Z,1.35
2022-09-10T06:26:54.924Z,1.38
2022-09-10T06:29:24.240Z,1.48
2022-09-10T06:31:53.464Z,2.28
2022-09-10T06:34:23.218Z,1.90
2022-09-10T06:36:52.693Z,1.17
2022-09-10T06:39:22.001Z,1.20
2022-09-10T06:41:51.316Z,2.08
2022-09-10T06:44:23.349Z,0.95
2022-09-10T06:47:46.209Z,2.38
2022-09-10T06:49:45.119Z,1.00
2022-09-10T06:52:14.366Z,0.93
2022-09-10T06:54:43.702Z,1.42
2022-09-10T06:57:13.048Z,2.45
2022-09-10T06:59:42.456Z,1.08
2022-09-10T07:02:12.596Z,0.88
2022-09-10T07:04:41.829Z,1.45
2022-09-10T07:07:11.168Z,1.40
2022-09-10T07:09:40.417Z,1.23
2022-09-10T07:12:13.671Z,1.52
2022-09-10T07:14:42.895Z,1.40
2022-09-10T07:17:12.109Z,0.98
2022-09-10T07:19:41.437Z,1.20
2022-09-10T07:22:10.852Z,1.55
2022-09-10T07:24:40.172Z,1.00
2022-09-10T07:27:12.069Z,2.33
2022-09-10T07:29:41.364Z,1.00
2022-09-10T07:32:13.367Z,0.88
2022-09-10T07:34:42.913Z,1.30
2022-09-10T07:37:12.588Z,0.98
2022-09-10T07:39:41.810Z,1.67
2022-09-10T07:42:12.789Z,0.60
2022-09-10T07:44:41.993Z,1.00
2022-09-10T07:47:11.353Z,1.65
2022-09-10T07:49:40.670Z,1.80
2022-09-10T07:52:09.944Z,1.80
2022-09-10T07:54:39.525Z,1.80
2022-09-10T07:57:08.772Z,0.88
2022-09-10T07:59:38.232Z,1.27
2022-09-10T08:02:07.533Z,0.90
2022-09-10T08:04:38.685Z,1.45
2022-09-10T08:07:07.872Z,1.95
2022-09-10T08:09:37.039Z,0.88
2022-09-10T08:12:08.727Z,1.52
2022-09-10T08:14:39.449Z,1.35
2022-09-10T08:17:09.220Z,1.85
2022-09-10T08:19:38.418Z,1.98
2022-09-10T08:22:13.178Z,2.97
2022-09-10T08:24:42.814Z,1.20
2022-09-10T08:27:12.629Z,1.05
2022-09-10T08:29:41.851Z,1.27
2022-09-10T08:32:14.214Z,0.77
2022-09-10T08:34:43.481Z,0.93
2022-09-10T08:37:13.505Z,0.73
2022-09-10T08:39:42.742Z,0.85
2022-09-10T08:42:47.460Z,0.40
2022-09-10T08:45:30.238Z,0.40
2022-09-10T08:48:22.486Z,0.90
2022-09-10T08:51:28.643Z,0.52
2022-09-10T08:54:23.807Z,0.60
2022-09-10T08:56:59.561Z,0.40
2022-09-10T08:59:43.190Z,0.40
2022-09-10T09:02:51.367Z,0.90
2022-09-10T09:05:24.680Z,0.75
2022-09-10T09:07:55.818Z,0.63
2022-09-10T09:10:59.595Z,1.65
2022-09-10T09:14:03.663Z,0.88
2022-09-10T09:17:20.778Z,0.45
2022-09-10T09:20:21.474Z,0.40
2022-09-10T09:23:21.852Z,0.30
2022-09-10T09:26:17.116Z,0.30
2022-09-10T09:29:06.519Z,0.35
2022-09-10T09:31:44.250Z,0.50
2022-09-10T09:34:48.031Z,0.60
2022-09-10T09:37:27.151Z,0.43
2022-09-10T09:40:33.269Z,0.88
2022-09-10T09:43:39.338Z,1.13
2022-09-10T09:46:19.676Z,1.67
2022-09-10T09:48:54.623Z,1.08
2022-09-10T09:51:26.773Z,1.67
2022-09-10T09:54:46.607Z,0.80
2022-09-10T09:57:03.972Z,1.05
2022-09-10T09:59:36.249Z,1.73
2022-09-10T10:02:27.139Z,1.35
2022-09-10T10:05:24.930Z,3.28
2022-09-10T10:07:54.243Z,1.85
2022-09-10T10:10:29.636Z,2.53
2022-09-10T10:12:59.738Z,1.63
2022-09-10T10:15:43.469Z,2.05
2022-09-10T10:18:32.988Z,2.53
2022-09-10T10:21:30.626Z,2.08
2022-09-10T10:24:00.216Z,2.65
2022-09-10T10:26:39.412Z,1.88
2022-09-10T10:29:22.311Z,2.72
2022-09-10T10:31:54.115Z,1.52
2022-09-10T10:35:09.175Z,2.58
2022-09-10T10:38:15.066Z,2.13
2022-09-10T10:41:22.023Z,4.10
2022-09-10T10:44:37.755Z,5.18
2022-09-10T10:47:49.807Z,5.25
2022-09-10T10:51:06.106Z,4.30
2022-09-10T10:54:26.973Z,3.70
2022-09-10T10:57:40.460Z,3.67
2022-09-10T11:00:20.882Z,2.75
2022-09-10T11:03:12.537Z,2.70
2022-09-10T11:05:54.017Z,2.85
2022-09-10T11:08:44.444Z,2.35
2022-09-10T11:11:41.909Z,2.17
2022-09-10T11:14:43.009Z,1.30
2022-09-10T11:17:49.697Z,1.58
2022-09-10T11:20:34.310Z,1.20
2022-09-10T11:23:39.142Z,1.95
2022-09-10T11:26:37.441Z,0.88
2022-09-10T11:29:51.572Z,1.42
2022-09-10T11:33:07.790Z,1.45
2022-09-10T11:35:49.365Z,1.40
2022-09-10T11:39:02.805Z,1.98
2022-09-10T11:41:37.246Z,1.90
2022-09-10T11:44:59.266Z,2.03
2022-09-10T11:47:45.562Z,1.50
2022-09-10T11:50:49.681Z,1.95
2022-09-10T11:53:23.290Z,1.98
2022-09-10T11:56:37.951Z,2.83
2022-09-10T12:00:09.139Z,3.50
2022-09-10T12:03:30.109Z,2.80
2022-09-10T12:06:30.804Z,3.50
2022-09-10T12:09:34.166Z,4.45
2022-09-10T12:12:46.888Z,3.47
2022-09-10T12:15:31.972Z,4.13
2022-09-10T12:18:24.088Z,5.13
2022-09-10T12:21:05.533Z,4.40
2022-09-10T12:23:46.117Z,4.13
2022-09-10T12:26:21.747Z,4.72
2022-09-10T12:29:02.980Z,4.65
2022-09-10T12:32:17.594Z,4.68
2022-09-10T12:34:49.504Z,3.63
2022-09-10T12:37:27.497Z,5.22
2022-09-10T12:40:40.739Z,5.38
2022-09-10T12:44:01.480Z,4.38
2022-09-10T12:46:32.587Z,4.05
2022-09-10T12:49:15.343Z,4.50
2022-09-10T12:52:04.608Z,6.65
2022-09-10T12:55:33.047Z,4.72
2022-09-10T12:58:41.390Z,3.88
2022-09-10T13:01:43.277Z,3.47
2022-09-10T13:04:36.612Z,4.18
2022-09-10T13:07:24.280Z,4.57
2022-09-10T13:10:25.181Z,4.18
2022-09-10T13:13:05.998Z,4.35
2022-09-10T13:15:54.024Z,4.03
2022-09-10T13:18:36.907Z,3.92
2022-09-10T13:21:52.768Z,4.18
2022-09-10T13:25:10.260Z,3.83
2022-09-10T13:27:42.645Z,3.70
2022-09-10T13:30:26.659Z,3.67
2022-09-10T13:33:08.659Z,4.60
2022-09-10T13:36:09.429Z,3.88
2022-09-10T13:39:22.761Z,3.78
2022-09-10T13:42:33.629Z,4.10
2022-09-10T13:45:35.104Z,3.45
2022-09-10T13:48:23.444Z,3.63
2022-09-10T13:53:56.958Z,2.63
2022-09-10T13:56:34.481Z,3.03
2022-09-10T13:59:07.155Z,3.73
2022-09-10T14:02:02.537Z,3.83
2022-09-10T14:04:44.940Z,3.17
2022-09-10T14:07:33.843Z,2.72
2022-09-10T14:10:08.285Z,3.47
2022-09-10T14:12:39.284Z,4.25
2022-09-10T14:15:18.120Z,4.43
2022-09-10T14:17:55.243Z,3.88
2022-09-10T14:20:34.922Z,3.78
2022-09-10T14:23:17.926Z,4.38
2022-09-10T14:25:47.697Z,4.63
2022-09-10T14:28:28.456Z,8.70
2022-09-10T14:31:24.676Z,8.50
2022-09-10T14:33:55.217Z,6.88
2022-09-10T14:36:35.949Z,6.18
2022-09-10T14:39:26.184Z,8.32
2022-09-10T14:42:26.249Z,6.47
2022-09-10T14:44:56.267Z,4.65
2022-09-10T14:47:38.333Z,3.47
2022-09-10T14:50:31.997Z,3.70
2022-09-10T14:53:01.548Z,3.50
2022-09-10T14:55:33.863Z,3.10
2022-09-10T14:58:03.311Z,3.17
2022-09-10T15:00:32.866Z,3.40
2022-09-10T15:03:02.604Z,3.38
2022-09-10T15:05:31.988Z,3.58
2022-09-10T15:08:01.292Z,2.80
2022-09-10T15:10:30.582Z,2.78
2022-09-10T15:13:01.215Z,2.92
2022-09-10T15:15:32.084Z,2.38
2022-09-10T15:18:01.449Z,2.72
2022-09-10T15:20:30.674Z,1.73
2022-09-10T15:23:02.227Z,2.05
2022-09-10T15:25:51.153Z,1.90
2022-09-10T15:28:23.063Z,1.92
2022-09-10T15:30:53.783Z,1.65
2022-09-10T15:33:23.150Z,1.60
2022-09-10T15:35:58.959Z,2.28
2022-09-10T15:38:28.229Z,2.03
2022-09-10T15:41:13.228Z,2.55
2022-09-10T15:43:44.731Z,2.63
2022-09-10T15:46:19.294Z,2.15
2022-09-10T15:48:49.375Z,2.67
2022-09-10T15:51:25.164Z,2.28
2022-09-10T15:53:55.855Z,2.53
2022-09-10T15:56:27.696Z,2.72
2022-09-10T15:58:59.622Z,3.45
2022-09-10T16:01:30.018Z,3.53
2022-09-10T16:04:05.078Z,7.07
2022-09-10T16:06:41.741Z,7.47
2022-09-10T16:09:14.828Z,7.65
2022-09-10T16:11:45.577Z,7.10
2022-09-10T16:14:19.566Z,6.30
2022-09-10T16:16:49.560Z,5.68
2022-09-10T16:19:19.251Z,5.90
2022-09-10T16:21:51.193Z,4.32
2022-09-10T16:24:20.734Z,3.38
2022-09-10T16:26:50.295Z,3.58
2022-09-10T16:29:21.083Z,3.08
2022-09-10T16:31:51.208Z,3.58
2022-09-10T16:34:23.251Z,3.45
2022-09-10T16:36:52.612Z,5.25
2022-09-10T16:39:23.163Z,5.45
2022-09-10T16:41:52.947Z,6.13
2022-09-10T16:44:22.158Z,6.80
2022-09-10T16:46:53.958Z,7.53
2022-09-10T16:49:23.351Z,7.45
2022-09-10T16:51:52.543Z,11.75
2022-09-10T16:54:22.426Z,15.00
2022-09-10T16:56:52.660Z,17.90
2022-09-10T16:59:26.873Z,16.40
2022-09-10T17:01:58.911Z,16.73
2022-09-10T17:04:29.920Z,16.17
2022-09-10T17:07:00.098Z,14.52
2022-09-10T17:09:29.527Z,11.40
2022-09-10T17:11:58.689Z,9.50
2022-09-10T17:14:27.874Z,9.23
2022-09-10T17:16:57.749Z,8.95
2022-09-10T17:19:27.379Z,8.98
2022-09-10T17:21:57.951Z,9.43
2022-09-10T17:24:28.849Z,10.20
2022-09-10T17:26:58.790Z,10.70
2022-09-10T17:29:28.262Z,10.60
2022-09-10T17:31:58.397Z,12.30
2022-09-10T17:34:29.117Z,11.50
2022-09-10T17:36:58.349Z,12.95
2022-09-10T17:39:29.756Z,12.57
2022-09-10T17:41:59.911Z,17.10
2022-09-10T17:44:29.248Z,23.50
2022-09-10T17:46:58.584Z,24.85
2022-09-10T17:49:27.768Z,25.38
2022-09-10T17:51:57.100Z,22.83
2022-09-10T17:54:26.370Z,19.55
2022-09-10T17:56:55.652Z,15.85
2022-09-10T17:59:26.411Z,14.70
2022-09-10T18:01:55.782Z,13.57
2022-09-10T18:04:27.420Z,9.05
2022-09-10T18:06:56.609Z,11.38
2022-09-10T18:09:27.517Z,12.25
2022-09-10T18:11:57.940Z,13.32
2022-09-10T18:14:27.231Z,14.80
2022-09-10T18:16:57.119Z,16.80
2022-09-10T18:19:26.977Z,18.50
2022-09-10T18:21:56.192Z,20.33
2022-09-10T18:24:26.067Z,21.02
2022-09-10T18:26:56.226Z,24.38
2022-09-10T18:29:31.159Z,29.23
2022-09-10T18:32:02.820Z,26.60
2022-09-10T18:34:33.489Z,26.92
2022-09-10T18:37:04.646Z,21.45
2022-09-10T18:39:35.527Z,18.70
2022-09-10T18:42:05.026Z,17.95
2022-09-10T18:44:38.069Z,18.55
2022-09-10T18:47:17.703Z,18.63
2022-09-10T18:49:58.937Z,17.00
2022-09-10T18:52:28.248Z,17.40
2022-09-10T18:54:57.694Z,16.45
2022-09-10T18:57:27.135Z,24.70
2022-09-10T18:59:56.678Z,30.35
2022-09-10T19:02:26.440Z,29.77
2022-09-10T19:05:10.630Z,28.25
2022-09-10T19:07:40.750Z,28.83
2022-09-10T19:10:10.184Z,28.05
2022-09-10T19:12:41.991Z,26.48
2022-09-10T19:15:12.717Z,23.63
2022-09-10T19:17:42.040Z,23.40
2022-09-10T19:20:11.628Z,21.48
2022-09-10T19:22:40.766Z,20.02
2022-09-10T19:25:11.786Z,18.13
2022-09-10T19:27:42.062Z,8.52
2022-09-10T19:30:12.425Z,7.20
2022-09-10T19:32:41.636Z,5.75
2022-09-10T19:35:12.419Z,4.22
2022-09-10T19:37:42.399Z,3.65
2022-09-10T19:40:13.528Z,3.05
2022-09-10T19:42:42.827Z,2.13
2022-09-10T19:45:13.846Z,2.80
2022-09-10T19:47:44.118Z,1.83
2022-09-10T19:50:13.450Z,2.40
2022-09-10T19:52:42.716Z,3.20
2022-09-10T19:55:13.775Z,2.22
2022-09-10T19:57:43.064Z,2.35
2022-09-10T20:00:30.076Z,2.45
2022-09-10T20:03:03.208Z,3.63
2022-09-10T20:05:35.194Z,4.13
2022-09-10T20:08:05.853Z,8.90
2022-09-10T20:10:35.046Z,10.02
2022-09-10T20:13:04.395Z,11.27
2022-09-10T20:15:33.899Z,14.18
2022-09-10T20:18:03.156Z,15.40
2022-09-10T20:20:32.567Z,16.42
2022-09-10T20:23:03.011Z,17.80
2022-09-10T20:25:33.053Z,18.38
2022-09-10T20:28:02.748Z,18.48
2022-09-10T20:30:33.054Z,17.30
2022-09-10T20:33:02.846Z,16.20
2022-09-10T20:35:32.096Z,16.75
2022-09-10T20:38:01.510Z,13.75
2022-09-10T20:40:30.811Z,14.60
2022-09-10T20:42:59.946Z,11.75
2022-09-10T20:45:29.345Z,10.63
2022-09-10T20:48:00.953Z,10.10
2022-09-10T20:50:30.524Z,6.57
2022-09-10T20:52:59.700Z,5.93
2022-09-10T20:55:28.969Z,6.07
2022-09-10T20:57:58.170Z,5.90
2022-09-10T21:00:27.347Z,5.57
2022-09-10T21:02:56.522Z,4.88
2022-09-10T21:05:26.034Z,4.55
2022-09-10T21:07:55.301Z,4.38
2022-09-10T21:10:24.568Z,3.97
2022-09-10T21:12:53.836Z,3.40
2022-09-10T21:15:23.095Z,3.78
2022-09-10T21:17:52.450Z,3.45
2022-09-10T21:20:23.119Z,3.95
2022-09-10T21:22:52.985Z,3.10
2022-09-10T21:25:23.101Z,3.20
2022-09-10T21:27:52.343Z,3.78
2022-09-10T21:30:21.693Z,3.30
2022-09-10T21:32:51.068Z,3.42
2022-09-10T21:35:20.407Z,3.00
2022-09-10T21:37:49.620Z,3.55
2022-09-10T21:40:18.872Z,2.92
2022-09-10T21:42:48.053Z,3.17
2022-09-10T21:45:19.586Z,3.45
2022-09-10T21:47:50.734Z,3.20
2022-09-10T21:50:19.926Z,3.53
2022-09-10T21:52:49.149Z,4.13
2022-09-10T21:55:18.439Z,3.13
2022-09-10T21:57:47.887Z,3.78
2022-09-10T22:00:17.541Z,3.00
2022-09-10T22:02:47.323Z,3.03
2022-09-10T22:05:16.763Z,2.70
2022-09-10T22:07:46.256Z,2.92
2022-09-10T22:10:19.733Z,3.40
2022-09-10T22:12:50.058Z,4.10
2022-09-10T22:15:19.435Z,3.28
2022-09-10T22:17:48.716Z,3.15
2022-09-10T22:20:18.109Z,2.58
2022-09-10T22:22:47.366Z,2.47
2022-09-10T22:25:16.529Z,2.92
2022-09-10T22:27:45.771Z,2.65
2022-09-10T22:30:15.097Z,2.03
2022-09-10T22:32:44.306Z,2.67
2022-09-10T22:35:13.516Z,1.85
2022-09-10T22:37:42.667Z,2.58
2022-09-10T22:40:12.635Z,2.20
2022-09-10T22:42:41.931Z,1.40
2022-09-10T22:45:12.348Z,1.05
2022-09-10T22:47:41.502Z,0.80
2022-09-10T22:50:11.558Z,0.70
2022-09-10T22:52:40.827Z,1.10
2022-09-10T22:55:11.504Z,0.60
2022-09-10T22:57:42.837Z,0.40
2022-09-10T23:00:14.773Z,0.63
2022-09-10T23:02:44.694Z,0.70
2022-09-10T23:05:14.029Z,0.77
2022-09-10T23:07:43.224Z,0.57
2022-09-10T23:10:13.112Z,0.70
2022-09-10T23:12:43.196Z,0.40
2022-09-10T23:15:12.732Z,0.75
2022-09-10T23:17:42.070Z,0.88
2022-09-10T23:20:13.378Z,1.02
2022-09-10T23:22:42.591Z,1.35
2022-09-10T23:25:11.870Z,1.70
2022-09-10T23:27:41.075Z,1.40
2022-09-10T23:30:11.706Z,1.00
2022-09-10T23:32:40.844Z,1.20
2022-09-10T23:35:11.135Z,0.80
2022-09-10T23:37:40.520Z,0.80
2022-09-10T23:40:12.496Z,1.60
2022-09-10T23:42:41.926Z,1.02
2022-09-10T23:45:11.997Z,1.88
2022-09-10T23:47:41.151Z,1.42
2022-09-10T23:50:10.799Z,1.40
2022-09-10T23:52:40.155Z,1.85
2022-09-10T23:55:09.789Z,2.03
2022-09-10T23:57:39.967Z,1.70
